ADDS METAR Data INFO
IDs: Format: Raw Decoded Include TAF

Data at: 1813 UTC 20 Jul 2018

KPPA 201755Z AUTO 23017G24KT 10SM CLR 40/07 A3001 RMK AO2 T04010072 10404 20237
KPPA 201735Z AUTO 24018G23KT 10SM CLR 40/08 A3001 RMK AO2 T04030076
KPPA 201715Z AUTO 23016G23KT 10SM CLR 40/08 A3002 RMK AO2 T03960078
KPPA 201655Z AUTO 24018G23KT 10SM CLR 39/07 A3002 RMK AO2 T03920072
KPPA 201635Z AUTO 23020G23KT 10SM CLR 39/07 A3002 RMK AO2 T03850066
KPPA 201615Z AUTO 24017G20KT 10SM CLR 39/07 A3002 RMK AO2 T03850069
KPPA 201555Z AUTO 24014G23KT 10SM CLR 38/07 A3002 RMK AO2 T03770066
KPPA 201535Z AUTO 26018KT 10SM CLR 37/06 A3002 RMK AO2 T03660061
KPPA 201515Z AUTO 24013KT 10SM CLR 36/07 A3002 RMK AO2 T03580073
KPPA 201455Z AUTO 24014KT 10SM CLR 35/07 A3002 RMK AO2 T03460072
KPPA 201435Z AUTO 24014G17KT 10SM CLR 34/07 A3003 RMK AO2 T03400074
KPPA 201415Z AUTO 24013G20KT 10SM CLR 33/07 A3003 RMK AO2 T03280073
KPPA 201355Z AUTO 24014G17KT 10SM CLR 32/07 A3002 RMK AO2 T03150074
KPPA 201335Z AUTO 24011KT 10SM CLR 30/08 A3002 RMK AO2 T03010078
KPPA 201315Z AUTO 25008KT 10SM CLR 29/08 A3001 RMK AO2 T02880079
KPPA 201255Z AUTO 24007KT 10SM CLR 27/09 A3001 RMK AO2 T02680085
KPPA 201235Z AUTO 23008KT 10SM CLR 25/09 A3000 RMK AO2 T02510087
KPPA 201215Z AUTO 22007KT 10SM CLR 25/09 A3000 RMK AO2 T02450086
KPPA 201155Z AUTO 21005KT 10SM CLR 25/09 A3000 RMK AO2 7//// T02490085 10269 20239
KPPA 201135Z AUTO 22008KT 10SM CLR 25/09 A2999 RMK AO2 T02500087
KPPA 201115Z AUTO 22009KT 10SM CLR 26/09 A2998 RMK AO2 T02640085
KPPA 201055Z AUTO 21009KT 10SM CLR 26/09 A2997 RMK AO2 T02560093
KPPA 201035Z AUTO 20009KT 10SM CLR 26/10 A2997 RMK AO2 T02600095
KPPA 201015Z AUTO 20010KT 10SM CLR 27/09 A2996 RMK AO2 T02660093
KPPA 200955Z AUTO 20010KT 10SM CLR 26/10 A2996 RMK AO2 T02580099
KPPA 200935Z AUTO 20009KT 10SM CLR 25/11 A2996 RMK AO2 T02510105
KPPA 200915Z AUTO 19008KT 10SM CLR 25/11 A2996 RMK AO2 T02510108
KPPA 200855Z AUTO 20008KT 10SM CLR 25/11 A2996 RMK AO2 T02510110
KPPA 200835Z AUTO 19008KT 10SM CLR 25/11 A2996 RMK AO2 T02530108
KPPA 200815Z AUTO 19009KT 10SM CLR 26/11 A2996 RMK AO2 T02610108
KPPA 200755Z AUTO 18008KT 10SM CLR 25/12 A2996 RMK AO2 T02450115
KPPA 200735Z AUTO 17007KT 10SM CLR 25/12 A2996 RMK AO2 T02460117
KPPA 200715Z AUTO 18008KT 10SM CLR 25/12 A2996 RMK AO2 T02500116
KPPA 200655Z AUTO 18008KT 10SM CLR 25/12 A2996 RMK AO2 T02530115
KPPA 200635Z AUTO 18008KT 10SM CLR 25/12 A2997 RMK AO2 T02540116
KPPA 200615Z AUTO 18009KT 10SM CLR 25/12 A2997 RMK AO2 T02500120
KPPA 200555Z AUTO 17007KT 10SM CLR 25/12 A2997 RMK AO2 T02520118 10391 20247
KPPA 200535Z AUTO 16006KT 10SM CLR 25/13 A2997 RMK AO2 T02520126
KPPA 200515Z AUTO 15004KT 10SM CLR 27/12 A2998 RMK AO2 T02680117
KPPA 200455Z AUTO 17003KT 10SM CLR 28/11 A2998 RMK AO2 T02780110
KPPA 200435Z AUTO 00000KT 10SM CLR 28/11 A2999 RMK AO2 T02830109
KPPA 200415Z AUTO 22005KT 10SM CLR 28/11 A2999 RMK AO2 LTG DSNT NE T02810109
KPPA 200355Z AUTO 23007KT 10SM CLR 28/11 A2999 RMK AO2 T02810108
KPPA 200335Z AUTO 18004KT 10SM CLR 29/11 A2999 RMK AO2 T02910105
KPPA 200315Z AUTO 26007KT 10SM CLR 30/10 A3000 RMK AO2 T02990101
KPPA 200255Z AUTO 05005KT 10SM CLR 30/11 A2998 RMK AO2 T02960106
KPPA 200235Z AUTO 05008KT 10SM CLR 30/11 A2998 RMK AO2 T03010105
KPPA 200215Z AUTO 02013G19KT 10SM CLR 31/10 A2998 RMK AO2 T03090101
KPPA 200155Z AUTO 02017G25KT 10SM CLR 31/10 A2998 RMK AO2 T03100102
KPPA 200135Z AUTO 01017G23KT 10SM CLR 31/11 A2998 RMK AO2 T03090111
KPPA 200115Z AUTO 01028G33KT 10SM CLR 33/10 A2997 RMK AO2 LTG DSNT N T03250099
KPPA 200055Z AUTO 00000KT 10SM CLR 37/07 A2994 RMK AO2 LTG DSNT NE T03690068
KPPA 200035Z AUTO 16010KT 10SM CLR 38/06 A2992 RMK AO2 T03830061
KPPA 200015Z AUTO 16010KT 10SM CLR 39/07 A2992 RMK AO2 T03900067
KPPA 192355Z AUTO 16009KT 10SM CLR 39/07 A2991 RMK AO2 6//// T03910065
KPPA 192335Z AUTO 17011KT 10SM CLR 40/06 A2992 RMK AO2 T03950058
KPPA 192315Z AUTO 16010KT 10SM CLR 39/06 A2992 RMK AO2 LTG DSNT N T03940059
KPPA 192255Z AUTO 16007KT 10SM CLR 41/06 A2993 RMK AO2 LTG DSNT N T04080057
KPPA 192235Z AUTO 16009KT 10SM CLR 41/05 A2993 RMK AO2 T04050052
KPPA 192215Z AUTO 17012KT A2993 RMK AO2 PWINO
KPPA 192155Z AUTO 20010G21KT 10SM CLR 40/06 A2993 RMK AO2 T04000055
KPPA 192135Z AUTO 17012KT 10SM CLR 41/06 A2993 RMK AO2 T04080061
KPPA 192115Z AUTO 19008G22KT 10SM CLR 41/06 A2994 RMK AO2 T04070056
KPPA 192055Z AUTO 21008KT 160V230 10SM CLR 41/06 A2994 RMK AO2 T04140063
KPPA 192035Z AUTO 20009G19KT 10SM CLR 42/06 A2995 RMK AO2 T04180063
KPPA 192015Z AUTO 21015G19KT 10SM CLR 41/07 A2995 RMK AO2 T04110067
KPPA 191955Z AUTO 20013G21KT 10SM SCT120 42/08 A2996 RMK AO2 T04180075
KPPA 191935Z AUTO 18013G20KT 10SM CLR 40/07 A2996 RMK AO2 T04020074
KPPA 191915Z AUTO 19013G22KT 10SM CLR 40/08 A2997 RMK AO2 T04030080
KPPA 191855Z AUTO 22010G19KT 10SM CLR 41/08 A2998 RMK AO2 T04110081
KPPA 191835Z AUTO 21014G19KT 10SM CLR 41/07 A2999 RMK AO2 T04060074
KPPA 191815Z AUTO 20009G14KT 10SM CLR 40/09 A2999 RMK AO2 T04040085
KPPA 191755Z AUTO 24011G17KT 10SM CLR 40/09 A3000 RMK AO2 T03990090 10400 20206
KPPA 191735Z AUTO 24012G15KT 10SM CLR 40/09 A3000 RMK AO2 T03960091
KPPA 191715Z AUTO 23011G17KT 10SM CLR 40/10 A3001 RMK AO2 T03960095
KPPA 191655Z AUTO 23013G18KT 10SM CLR 39/10 A3001 RMK AO2 T03900096
KPPA 191635Z AUTO 24012KT 10SM CLR 38/10 A3001 RMK AO2 T03820101
KPPA 191615Z AUTO 25015G18KT 10SM CLR 38/10 A3001 RMK AO2 T03770101
KPPA 191555Z AUTO 24014KT 10SM CLR 37/10 A3001 RMK AO2 T03660102
KPPA 191535Z AUTO 25012G18KT 10SM CLR 36/10 A3001 RMK AO2 T03570104
KPPA 191515Z AUTO 25013KT 10SM CLR 35/10 A3002 RMK AO2 T03520102
KPPA 191455Z AUTO 24013KT 10SM CLR 34/11 A3002 RMK AO2 T03440105
KPPA 191435Z AUTO 22010KT 10SM CLR 32/12 A3002 RMK AO2 T03220115
KPPA 191415Z AUTO 21007KT 10SM CLR 31/12 A3003 RMK AO2 T03060116
KPPA 191355Z AUTO 20005KT 10SM CLR 29/14 A3002 RMK AO2 T02890139
KPPA 191335Z AUTO 19008KT 10SM CLR 28/15 A3001 RMK AO2 T02750146
KPPA 191315Z AUTO 17006KT 10SM CLR 25/18 A3001 RMK AO2 T02510176
KPPA 191255Z AUTO 16005KT 10SM CLR 23/19 A3001 RMK AO2 T02280186
KPPA 191235Z AUTO 14004KT 10SM CLR 22/18 A3000 RMK AO2 T02190181
KPPA 191215Z AUTO 14006KT 7SM CLR 21/18 A3000 RMK AO2 T02100180
KPPA 191155Z AUTO 13005KT 7SM CLR 21/18 A3000 RMK AO2 T02050176 10246 20200
KPPA 191135Z AUTO 14005KT 7SM CLR 21/18 A2999 RMK AO2 T02060175
KPPA 191115Z AUTO 12006KT 10SM CLR 20/18 A2999 RMK AO2 T02000175
KPPA 191055Z AUTO 11005KT 10SM CLR 21/18 A2998 RMK AO2 T02050177
KPPA 191035Z AUTO 14004KT 10SM CLR 21/18 A2998 RMK AO2 T02100180
KPPA 191015Z AUTO 13005KT 10SM CLR 21/18 A2997 RMK AO2 T02050177
KPPA 190955Z AUTO 10005KT 10SM CLR 21/18 A2998 RMK AO2 T02120177
KPPA 190935Z AUTO 14005KT 10SM CLR 20/18 A2998 RMK AO2 T02030175
KPPA 190915Z AUTO 17007KT 10SM CLR 21/18 A2998 RMK AO2 T02080177
KPPA 190855Z AUTO 16007KT 10SM CLR 21/18 A2998 RMK AO2 T02070176
KPPA 190835Z AUTO 15005KT 10SM CLR 21/18 A2999 RMK AO2 T02120175
KPPA 190815Z AUTO 13007KT 10SM CLR 22/18 A2999 RMK AO2 T02220178
KPPA 190755Z AUTO 12008KT 10SM CLR 22/18 A2999 RMK AO2 T02230178
KPPA 190735Z AUTO 11007KT 10SM CLR 23/18 A2999 RMK AO2 T02270178
KPPA 190715Z AUTO 12007KT 10SM CLR 23/18 A2999 RMK AO2 T02300180
KPPA 190655Z AUTO 12006KT 10SM CLR 24/18 A3000 RMK AO2 T02350181
KPPA 190635Z AUTO 11008KT 10SM CLR 23/18 A3000 RMK AO2 T02340183
KPPA 190615Z AUTO 13006KT 10SM CLR 23/18 A3000 RMK AO2 T02300183